ADDS METAR Data INFO
IDs: Format: Raw Decoded Include TAF

Data at: 1338 UTC 25 Feb 2018

METAR for:KZPH (Zephyrhills Muni, FL, US)
Text:KZPH 251335Z AUTO 16004KT 10SM OVC085 22/20 A3020 RMK AO2 T02160199
Temperature: 21.6°C ( 71°F)
Dewpoint: 19.9°C ( 68°F) [RH = 90%]
Pressure (altimeter):30.20 inches Hg (1022.8 mb)
Winds:from the SSE (160 degrees) at 5 MPH (4 knots; 2.1 m/s)
Visibility:10 or more sm (16+ km)
Ceiling:8500 feet AGL
Clouds: overcast cloud deck at 8500 feet AGL
QC Flag:automated observation with no human augmentation